Time;durP1;ratioP1;P1;durP2;ratioP2;P2;SDS_P1;SDS_P2;PMS_P1;PMS_P2;Temp;Humidity;BMP_temperature;BMP_pressure;BME280_temperature;BME280_humidity;BME280_pressure;Samples;Min_cycle;Max_cycle;Signal;HPM_P1;HPM_P2
2022/07/12 00:02:25;;;;;;;1.05;0.43;;;22.10;65.40;;;;;;4492046;31;20623;-67
2022/07/12 00:04:51;;;;;;;0.68;0.38;;;22.10;65.40;;;;;;4492202;31;20054;-67
2022/07/12 00:07:18;;;;;;;1.10;0.50;;;22.10;65.40;;;;;;4492210;31;20398;-67
2022/07/12 00:09:43;;;;;;;1.05;0.32;;;22.10;65.30;;;;;;4492019;31;20081;-67
2022/07/12 00:12:09;;;;;;;0.75;0.43;;;22.10;65.40;;;;;;4491987;31;20087;-67
2022/07/12 00:14:35;;;;;;;1.27;0.40;;;22.10;65.30;;;;;;4491899;31;20266;-67
2022/07/12 00:17:03;;;;;;;0.90;0.57;;;22.10;65.40;;;;;;4490928;32;20065;-67
2022/07/12 00:19:29;;;;;;;0.52;0.30;;;22.10;65.30;;;;;;4490847;32;20073;-67
2022/07/12 00:21:55;;;;;;;3.25;0.60;;;22.10;65.40;;;;;;4491857;32;20454;-67
2022/07/12 00:24:21;;;;;;;0.95;0.40;;;22.10;65.30;;;;;;4491882;32;20397;-67
2022/07/12 00:26:47;;;;;;;0.40;0.30;;;22.00;65.30;;;;;;4491809;32;20087;-67
2022/07/12 00:29:13;;;;;;;0.47;0.40;;;22.10;65.30;;;;;;4491564;32;20158;-67
2022/07/12 00:31:39;;;;;;;1.25;0.60;;;22.00;65.20;;;;;;4491899;32;20214;-67
2022/07/12 00:34:04;;;;;;;0.90;0.40;;;22.00;65.20;;;;;;4491798;32;20470;-67
2022/07/12 00:36:30;;;;;;;0.63;0.47;;;22.00;65.20;;;;;;4491710;32;20073;-67
2022/07/12 00:38:56;;;;;;;0.65;0.30;;;22.00;65.20;;;;;;4491789;32;20487;-67
2022/07/12 00:41:23;;;;;;;0.45;0.40;;;22.00;65.20;;;;;;4491745;32;20227;-67
2022/07/12 00:43:49;;;;;;;0.60;0.40;;;22.00;65.30;;;;;;4491787;32;20510;-67
2022/07/12 00:46:20;;;;;;;1.08;0.55;;;22.00;65.20;;;;;;4491707;32;20076;-67
2022/07/12 00:48:46;;;;;;;0.95;0.50;;;22.10;65.30;;;;;;4492032;32;20637;-67
2022/07/12 00:51:12;;;;;;;1.00;0.40;;;22.00;65.20;;;;;;4491674;32;20084;-67
2022/07/12 00:53:38;;;;;;;0.52;0.30;;;22.00;65.50;;;;;;4490159;32;20113;-67
2022/07/12 00:56:05;;;;;;;1.30;0.40;;;22.00;65.20;;;;;;4491927;32;20088;-67
2022/07/12 00:58:31;;;;;;;0.65;0.40;;;22.00;65.20;;;;;;4491614;32;20065;-67
2022/07/12 01:00:58;;;;;;;1.05;0.50;;;22.00;65.20;;;;;;4491689;32;20138;-67
2022/07/12 01:03:25;;;;;;;0.30;0.30;;;22.00;65.20;;;;;;4491665;32;20093;-67
2022/07/12 01:05:51;;;;;;;0.40;0.30;;;22.00;65.20;;;;;;4491575;32;20093;-67
2022/07/12 01:08:18;;;;;;;1.55;0.55;;;22.00;65.20;;;;;;4493629;31;20380;-68
2022/07/12 01:10:48;;;;;;;0.30;0.30;;;22.00;65.20;;;;;;4494703;31;20091;-67
2022/07/12 01:13:14;;;;;;;0.75;0.30;;;22.00;66.00;;;;;;4494744;31;20181;-67
2022/07/12 01:15:41;;;;;;;2.13;0.40;;;22.00;65.20;;;;;;4494031;31;20392;-67
2022/07/12 01:18:07;;;;;;;0.90;0.40;;;22.00;65.20;;;;;;4494383;31;20286;-67
2022/07/12 01:20:34;;;;;;;1.25;0.40;;;22.00;65.10;;;;;;4494338;31;20282;-67
2022/07/12 01:23:00;;;;;;;0.80;0.40;;;22.00;65.10;;;;;;4494108;31;20493;-67
2022/07/12 01:25:26;;;;;;;0.50;0.30;;;22.00;65.20;;;;;;4494293;31;20511;-67
2022/07/12 01:27:53;;;;;;;0.75;0.45;;;22.00;65.10;;;;;;4493130;31;20089;-67
2022/07/12 01:30:19;;;;;;;1.38;0.50;;;22.00;65.20;;;;;;4494495;31;20246;-67
2022/07/12 01:32:45;;;;;;;0.25;0.25;;;22.00;65.20;;;;;;4494250;31;20609;-67
2022/07/12 01:35:11;;;;;;;0.35;0.20;;;22.00;65.20;;;;;;4494181;31;20089;-67
2022/07/12 01:37:38;;;;;;;0.38;0.30;;;22.00;65.20;;;;;;4494067;31;20065;-67
2022/07/12 01:40:10;;;;;;;0.50;0.47;;;22.00;65.10;;;;;;4494064;31;20100;-67
2022/07/12 01:42:37;;;;;;;1.10;0.40;;;22.00;65.20;;;;;;4494308;31;20083;-67
2022/07/12 01:45:04;;;;;;;0.85;0.40;;;21.90;65.10;;;;;;4494163;31;20076;-67
2022/07/12 01:47:35;;;;;;;0.95;0.50;;;22.00;65.10;;;;;;4494128;31;20092;-67
2022/07/12 01:50:03;;;;;;;0.60;0.38;;;21.90;65.10;;;;;;4494198;31;20207;-67
2022/07/12 01:52:29;;;;;;;1.17;0.20;;;22.00;65.10;;;;;;4493699;31;20091;-67
2022/07/12 01:54:57;;;;;;;1.42;0.35;;;22.00;65.10;;;;;;4494268;31;20091;-67
2022/07/12 01:57:23;;;;;;;0.57;0.20;;;21.90;65.10;;;;;;4493804;31;20088;-67
2022/07/12 01:59:49;;;;;;;1.13;0.35;;;21.90;65.10;;;;;;4493812;31;20631;-67
2022/07/12 02:02:15;;;;;;;1.90;0.30;;;21.90;65.00;;;;;;4493566;31;20065;-67
2022/07/12 02:04:41;;;;;;;0.98;0.40;;;21.90;65.00;;;;;;4493719;31;20095;-67
2022/07/12 02:07:07;;;;;;;0.47;0.30;;;21.90;65.00;;;;;;4493341;31;20065;-67
2022/07/12 02:09:33;;;;;;;0.55;0.40;;;21.90;65.00;;;;;;4493477;31;20069;-67
2022/07/12 02:11:59;;;;;;;0.40;0.25;;;22.00;65.10;;;;;;4493929;31;20194;-67
2022/07/12 02:14:26;;;;;;;0.68;0.30;;;21.90;65.00;;;;;;4493529;31;20089;-67
2022/07/12 02:16:52;;;;;;;0.70;0.40;;;21.90;65.00;;;;;;4493506;31;20198;-67
2022/07/12 02:19:18;;;;;;;0.28;0.20;;;21.90;65.00;;;;;;4493043;31;20489;-67
2022/07/12 02:21:44;;;;;;;2.20;0.43;;;21.90;65.00;;;;;;4493451;31;20112;-67
2022/07/12 02:24:10;;;;;;;0.65;0.43;;;21.90;64.90;;;;;;4493404;31;20077;-67
2022/07/12 02:26:36;;;;;;;0.30;0.30;;;21.90;64.90;;;;;;4493048;31;20073;-67
2022/07/12 02:29:06;;;;;;;0.30;0.30;;;21.90;65.00;;;;;;4493349;31;20073;-67
2022/07/12 02:31:32;;;;;;;0.85;0.40;;;21.90;65.00;;;;;;4493236;31;20065;-67
2022/07/12 02:39:11;;;;;;;3.28;0.40;;;21.90;64.90;;;;;;4355389;29;20076;-68
2022/07/12 02:41:37;;;;;;;0.40;0.30;;;21.90;64.90;;;;;;4489090;31;20095;-67
2022/07/12 02:44:03;;;;;;;0.32;0.30;;;21.90;64.90;;;;;;4493051;31;20089;-68
2022/07/12 02:46:29;;;;;;;0.98;0.35;;;21.90;64.90;;;;;;4492820;31;20066;-66
2022/07/12 02:48:55;;;;;;;0.30;0.30;;;21.90;64.90;;;;;;4492882;31;20405;-66
2022/07/12 02:51:21;;;;;;;0.40;0.30;;;21.90;64.90;;;;;;4492921;31;20554;-67
2022/07/12 02:53:46;;;;;;;0.35;0.22;;;21.90;64.90;;;;;;4492666;31;20544;-67
2022/07/12 02:56:12;;;;;;;1.00;0.40;;;21.80;64.80;;;;;;4493021;31;20121;-67
2022/07/12 02:58:38;;;;;;;0.30;0.30;;;21.80;64.90;;;;;;4492910;31;20652;-67
2022/07/12 03:01:04;;;;;;;0.50;0.20;;;21.80;64.90;;;;;;4492833;31;20065;-67
2022/07/12 03:03:30;;;;;;;0.52;0.20;;;21.90;65.00;;;;;;4493079;31;20203;-66
2022/07/12 03:05:57;;;;;;;0.43;0.30;;;21.80;64.90;;;;;;4492795;31;20226;-66
2022/07/12 03:08:23;;;;;;;0.70;0.40;;;21.80;65.70;;;;;;4492956;31;20099;-67
2022/07/12 03:10:49;;;;;;;0.45;0.28;;;21.80;64.90;;;;;;4492748;31;20077;-66
2022/07/12 03:13:15;;;;;;;0.30;0.30;;;21.80;64.80;;;;;;4478394;31;20211;-66
2022/07/12 03:15:41;;;;;;;0.30;0.30;;;21.90;64.90;;;;;;4492647;31;20186;-66
2022/07/12 03:18:07;;;;;;;0.30;0.30;;;21.80;64.80;;;;;;4492821;31;20078;-67
2022/07/12 03:20:33;;;;;;;0.40;0.30;;;21.80;64.90;;;;;;4492339;31;20200;-66
2022/07/12 03:22:59;;;;;;;0.35;0.30;;;21.80;64.90;;;;;;4492545;31;20065;-66
2022/07/12 03:25:24;;;;;;;0.77;0.30;;;21.80;64.90;;;;;;4492696;31;20470;-68
2022/07/12 03:27:51;;;;;;;1.92;0.28;;;21.80;64.80;;;;;;4492101;31;20087;-66
2022/07/12 03:30:17;;;;;;;2.25;0.22;;;21.80;64.90;;;;;;4492430;31;20528;-67
2022/07/12 03:32:43;;;;;;;0.30;0.28;;;21.80;64.90;;;;;;4492451;31;20121;-66
2022/07/12 03:35:10;;;;;;;1.58;0.40;;;21.80;64.90;;;;;;4492357;31;20077;-66
2022/07/12 03:37:54;;;;;;;0.57;0.28;;;21.80;64.90;;;;;;4492140;31;20097;-67
2022/07/12 03:40:21;;;;;;;0.45;0.20;;;21.80;64.90;;;;;;4492687;31;20057;-66
2022/07/12 03:42:48;;;;;;;0.30;0.20;;;21.80;65.00;;;;;;4491979;31;20111;-67
2022/07/12 03:45:14;;;;;;;0.50;0.30;;;21.80;65.00;;;;;;4492443;31;20095;-67
2022/07/12 03:47:41;;;;;;;0.70;0.20;;;21.80;65.00;;;;;;4492161;31;20068;-66
2022/07/12 03:50:13;;;;;;;1.08;0.50;;;21.80;65.00;;;;;;4492136;31;20162;-65
2022/07/12 03:52:40;;;;;;;1.83;0.20;;;21.80;65.00;;;;;;4492234;31;20077;-66
2022/07/12 03:55:07;;;;;;;0.80;0.40;;;21.80;65.10;;;;;;4491782;31;20230;-66
2022/07/12 03:57:33;;;;;;;0.47;0.30;;;21.80;65.10;;;;;;4491816;31;20120;-66
2022/07/12 03:59:59;;;;;;;1.25;0.35;;;21.80;65.10;;;;;;4492105;31;20119;-66
2022/07/12 04:02:25;;;;;;;1.15;0.38;;;21.80;65.20;;;;;;4492176;31;20061;-66
2022/07/12 04:04:51;;;;;;;0.40;0.30;;;21.80;65.10;;;;;;4477481;31;20162;-66
2022/07/12 04:07:18;;;;;;;0.38;0.20;;;21.80;65.10;;;;;;4491606;31;20092;-67
2022/07/12 04:09:44;;;;;;;3.60;0.30;;;21.80;65.10;;;;;;4491949;31;20081;-67
2022/07/12 04:12:10;;;;;;;4.82;0.40;;;21.80;65.10;;;;;;4491827;31;20058;-66
2022/07/12 04:14:36;;;;;;;3.60;0.30;;;21.80;65.10;;;;;;4491632;31;20199;-66
2022/07/12 04:17:02;;;;;;;2.05;0.25;;;21.80;65.10;;;;;;4491736;31;20073;-66
2022/07/12 04:19:31;;;;;;;0.32;0.30;;;21.80;65.10;;;;;;4491685;32;20099;-66
2022/07/12 04:21:58;;;;;;;0.20;0.20;;;21.80;65.10;;;;;;4491683;32;20572;-66
2022/07/12 04:24:25;;;;;;;0.30;0.22;;;21.70;65.00;;;;;;4491501;32;20146;-67
2022/07/12 04:26:51;;;;;;;0.80;0.32;;;21.80;65.10;;;;;;4491758;32;20073;-66
2022/07/12 04:29:17;;;;;;;2.42;0.47;;;21.80;65.10;;;;;;4491935;32;20162;-66
2022/07/12 04:31:43;;;;;;;0.32;0.30;;;21.80;65.10;;;;;;4491633;32;20124;-66
2022/07/12 04:34:09;;;;;;;1.55;0.32;;;21.80;65.10;;;;;;4491869;32;20068;-66
2022/07/12 04:36:35;;;;;;;1.08;0.25;;;21.70;65.10;;;;;;4492378;32;20092;-66
2022/07/12 04:39:01;;;;;;;0.50;0.40;;;21.70;65.10;;;;;;4491672;32;20355;-66
2022/07/12 04:41:27;;;;;;;0.50;0.38;;;21.70;65.10;;;;;;4477632;32;20182;-66
2022/07/12 04:43:53;;;;;;;0.95;0.40;;;21.70;65.10;;;;;;4494249;31;20406;-66
2022/07/12 04:46:20;;;;;;;0.95;0.25;;;21.80;65.10;;;;;;4495101;31;20085;-66
2022/07/12 04:48:45;;;;;;;1.52;0.28;;;21.70;65.10;;;;;;4494770;31;20084;-66
2022/07/12 04:51:11;;;;;;;0.95;0.20;;;21.70;65.10;;;;;;4494798;31;20504;-66
2022/07/12 04:53:37;;;;;;;2.25;0.50;;;21.70;65.10;;;;;;4494979;31;20177;-66
2022/07/12 04:56:03;;;;;;;0.90;0.30;;;21.70;65.10;;;;;;4494638;31;20574;-67
2022/07/12 04:58:29;;;;;;;1.23;0.40;;;21.70;65.10;;;;;;4494375;31;20077;-66
2022/07/12 05:00:55;;;;;;;2.33;0.93;;;21.70;65.10;;;;;;4494632;31;20080;-67
2022/07/12 05:03:21;;;;;;;0.57;0.35;;;21.70;65.10;;;;;;4494779;31;20081;-66
2022/07/12 05:05:46;;;;;;;0.68;0.30;;;21.70;65.10;;;;;;4494620;31;20058;-66
2022/07/12 05:08:12;;;;;;;0.98;0.20;;;21.70;65.20;;;;;;4494716;31;20520;-66
2022/07/12 05:10:38;;;;;;;0.47;0.30;;;21.70;65.10;;;;;;4494979;31;20435;-66
2022/07/12 05:13:04;;;;;;;1.73;0.40;;;21.70;65.20;;;;;;4494470;31;20487;-66
2022/07/12 05:15:30;;;;;;;0.52;0.30;;;21.70;65.10;;;;;;4494521;31;20534;-66
2022/07/12 05:17:56;;;;;;;0.65;0.25;;;21.70;65.10;;;;;;4494215;31;20204;-66
2022/07/12 05:20:22;;;;;;;0.63;0.30;;;21.70;65.20;;;;;;4494411;31;20151;-67
2022/07/12 05:22:48;;;;;;;0.50;0.30;;;21.70;65.20;;;;;;4494365;31;20120;-66
2022/07/12 05:25:15;;;;;;;0.30;0.25;;;21.70;65.20;;;;;;4494467;31;20174;-66
2022/07/12 05:27:41;;;;;;;0.50;0.25;;;21.70;65.20;;;;;;4493944;31;20077;-66
2022/07/12 05:30:07;;;;;;;1.27;0.32;;;21.70;66.00;;;;;;4494250;31;20154;-66
2022/07/12 05:32:33;;;;;;;0.63;0.30;;;21.70;65.20;;;;;;4494210;31;20206;-66
2022/07/12 05:34:59;;;;;;;0.50;0.50;;;21.70;65.20;;;;;;4494120;31;20080;-66
2022/07/12 05:37:25;;;;;;;0.93;0.50;;;21.70;65.20;;;;;;4476868;32;20498;-67
2022/07/12 05:39:53;;;;;;;1.95;0.70;;;21.70;65.10;;;;;;4478056;32;20065;-67
2022/07/12 05:42:19;;;;;;;3.53;0.80;;;21.70;65.10;;;;;;4478407;31;20217;-66
2022/07/12 05:44:45;;;;;;;1.95;1.02;;;21.70;65.20;;;;;;4478256;31;20079;-66
2022/07/12 05:47:12;;;;;;;1.48;1.02;;;21.70;65.20;;;;;;4476869;32;20085;-66
2022/07/12 05:49:38;;;;;;;2.85;0.90;;;21.70;65.20;;;;;;4478708;32;20075;-66
2022/07/12 05:54:49;;;;;;;1.67;1.20;;;21.70;65.40;;;;;;4477339;32;20128;-66
2022/07/12 05:57:15;;;;;;;5.57;1.30;;;21.60;65.30;;;;;;4477795;31;20231;-67
2022/07/12 05:59:41;;;;;;;3.00;1.10;;;21.70;65.40;;;;;;4477855;32;20087;-66
2022/07/12 06:02:07;;;;;;;1.40;1.30;;;21.60;65.40;;;;;;4477831;32;20077;-66
2022/07/12 06:04:33;;;;;;;1.50;1.20;;;21.70;65.40;;;;;;4477874;31;20105;-66
2022/07/12 06:06:59;;;;;;;1.48;1.38;;;21.60;65.40;;;;;;4478076;31;20472;-66
2022/07/12 06:09:25;;;;;;;1.73;1.55;;;21.60;65.40;;;;;;4478042;31;20077;-66
2022/07/12 06:11:50;;;;;;;1.90;1.38;;;21.60;65.50;;;;;;4477882;31;20061;-66
2022/07/12 06:14:17;;;;;;;2.05;1.70;;;21.60;65.50;;;;;;4477929;32;20158;-66
2022/07/12 06:16:43;;;;;;;1.40;1.30;;;21.60;65.50;;;;;;4477560;31;20125;-66
2022/07/12 06:19:09;;;;;;;1.48;1.17;;;21.70;65.50;;;;;;4478075;31;20379;-65
2022/07/12 06:21:35;;;;;;;1.63;1.30;;;21.60;65.50;;;;;;4477502;31;20062;-66
2022/07/12 06:24:00;;;;;;;2.78;1.52;;;21.60;65.70;;;;;;4477808;32;20116;-67
2022/07/12 06:26:27;;;;;;;2.63;1.40;;;21.60;65.60;;;;;;4477711;32;20073;-66
2022/07/12 06:28:53;;;;;;;1.45;1.35;;;21.60;65.70;;;;;;4477571;31;20125;-67
2022/07/12 06:31:19;;;;;;;1.80;1.48;;;21.60;65.70;;;;;;4477805;31;20092;-66
2022/07/12 06:33:44;;;;;;;1.50;1.40;;;21.60;65.80;;;;;;4477516;31;20488;-67
2022/07/12 06:36:10;;;;;;;2.45;1.50;;;21.60;65.80;;;;;;4477794;31;20061;-67
2022/07/12 06:38:36;;;;;;;1.65;1.40;;;21.60;65.90;;;;;;4475934;32;20074;-67
2022/07/12 06:41:02;;;;;;;1.67;1.20;;;21.60;65.90;;;;;;4477482;32;20057;-66
2022/07/12 06:43:28;;;;;;;1.73;1.30;;;21.60;65.90;;;;;;4477091;31;20077;-66
2022/07/12 06:45:53;;;;;;;1.20;1.10;;;21.60;65.80;;;;;;4477427;31;20538;-66
2022/07/12 06:48:20;;;;;;;1.58;1.38;;;21.70;65.90;;;;;;4477239;31;20092;-67
2022/07/12 06:50:46;;;;;;;1.85;1.75;;;21.60;65.90;;;;;;4476205;32;20086;-67
2022/07/12 06:53:12;;;;;;;2.40;1.98;;;21.70;66.00;;;;;;4477225;31;20144;-67
2022/07/12 06:55:38;;;;;;;2.50;2.30;;;21.60;66.00;;;;;;4476255;32;20085;-67
2022/07/12 06:58:04;;;;;;;2.58;2.38;;;21.70;66.00;;;;;;4477428;31;20125;-66
2022/07/12 07:00:30;;;;;;;2.80;2.60;;;21.70;67.00;;;;;;4477084;31;20207;-66
2022/07/12 07:02:56;;;;;;;3.33;3.03;;;21.70;66.20;;;;;;4477125;32;20497;-66
2022/07/12 07:05:22;;;;;;;4.45;3.05;;;21.70;66.20;;;;;;4476670;32;20085;-67
2022/07/12 07:07:48;;;;;;;3.42;3.13;;;21.70;66.30;;;;;;4477124;31;20082;-67
2022/07/12 07:10:14;;;;;;;3.33;3.03;;;21.70;66.30;;;;;;4476654;32;20502;-66
2022/07/12 07:12:41;;;;;;;2.78;2.58;;;21.70;66.30;;;;;;4477169;32;20127;-66
2022/07/12 07:15:07;;;;;;;3.10;2.90;;;21.70;66.20;;;;;;4476907;32;20065;-66
2022/07/12 07:17:32;;;;;;;3.80;2.72;;;21.70;66.30;;;;;;4476849;31;20498;-66
2022/07/12 07:19:58;;;;;;;4.22;2.70;;;21.70;66.40;;;;;;4476943;32;20139;-67
2022/07/12 07:22:24;;;;;;;3.17;2.88;;;21.80;67.50;;;;;;4476741;31;20077;-68
2022/07/12 07:24:50;;;;;;;3.97;2.70;;;21.80;66.70;;;;;;4476752;31;20093;-67
2022/07/12 07:27:16;;;;;;;3.78;2.60;;;21.90;66.80;;;;;;4476087;32;20073;-68
2022/07/12 07:32:26;;;;;;;3.08;2.50;;;22.00;66.90;;;;;;4477023;32;20077;-66
2022/07/12 07:34:52;;;;;;;2.65;2.13;;;22.10;66.90;;;;;;4476430;31;20087;-66
2022/07/12 07:37:18;;;;;;;2.45;1.90;;;22.10;66.80;;;;;;4479235;31;20158;-66
2022/07/12 07:39:44;;;;;;;2.28;1.90;;;22.10;66.80;;;;;;4492010;31;20109;-66
2022/07/12 07:42:10;;;;;;;3.20;2.35;;;22.20;66.70;;;;;;4491977;31;20183;-66
2022/07/12 07:44:36;;;;;;;2.28;2.08;;;22.20;66.70;;;;;;4491957;31;20191;-65
2022/07/12 07:47:02;;;;;;;1.95;1.75;;;22.30;66.70;;;;;;4491822;31;20076;-65
2022/07/12 07:49:29;;;;;;;3.88;2.13;;;22.30;66.60;;;;;;4492404;31;20132;-66
2022/07/12 07:51:54;;;;;;;4.20;1.90;;;22.40;66.50;;;;;;4491927;31;20100;-66
2022/07/12 07:54:20;;;;;;;1.83;1.40;;;22.40;66.40;;;;;;4492467;31;20085;-66
2022/07/12 07:56:46;;;;;;;2.65;2.25;;;22.40;66.40;;;;;;4491875;31;20158;-66
2022/07/12 07:59:12;;;;;;;4.50;1.80;;;22.40;66.50;;;;;;4491782;31;20096;-66
2022/07/12 08:01:52;;;;;;;5.32;1.70;;;22.50;66.50;;;;;;4492043;31;20073;-66
2022/07/12 08:04:19;;;;;;;1.45;1.35;;;22.50;66.40;;;;;;4492232;31;20085;-67
2022/07/12 08:06:46;;;;;;;2.22;1.48;;;22.50;66.50;;;;;;4492295;31;20089;-66
2022/07/12 08:09:12;;;;;;;1.48;1.08;;;22.50;66.40;;;;;;4491929;31;20231;-66
2022/07/12 08:11:39;;;;;;;2.22;1.60;;;22.50;66.50;;;;;;4492027;31;20158;-66
2022/07/12 08:14:06;;;;;;;2.22;1.70;;;22.50;66.60;;;;;;4492030;31;20528;-66
2022/07/12 08:16:33;;;;;;;1.23;1.10;;;22.60;66.70;;;;;;4491764;31;20088;-66
2022/07/12 08:19:00;;;;;;;1.60;1.40;;;22.60;66.60;;;;;;4491954;32;20097;-66
2022/07/12 08:21:26;;;;;;;3.95;1.50;;;22.60;66.60;;;;;;4492123;32;20100;-66
2022/07/12 08:23:53;;;;;;;2.33;1.63;;;22.60;66.60;;;;;;4491929;32;20402;-66
2022/07/12 08:26:19;;;;;;;1.83;1.50;;;22.60;66.60;;;;;;4491928;32;20093;-66
2022/07/12 08:28:45;;;;;;;2.53;1.40;;;22.60;66.70;;;;;;4491524;32;20105;-67
2022/07/12 08:31:13;;;;;;;2.63;1.50;;;22.60;66.70;;;;;;4492146;32;20402;-66
2022/07/12 08:33:40;;;;;;;4.22;1.30;;;22.60;66.80;;;;;;4491401;32;20065;-64
2022/07/12 08:36:06;;;;;;;2.50;1.30;;;22.60;66.90;;;;;;4491833;32;20074;-65
2022/07/12 08:38:33;;;;;;;3.85;1.25;;;22.60;66.90;;;;;;4491567;32;20194;-66
2022/07/12 08:40:59;;;;;;;2.28;1.25;;;22.60;66.90;;;;;;4492031;32;20103;-65
2022/07/12 08:43:25;;;;;;;3.13;1.13;;;22.60;67.00;;;;;;4491851;32;20069;-64
2022/07/12 08:45:51;;;;;;;2.95;1.25;;;22.60;67.00;;;;;;4491504;32;20109;-67
2022/07/12 08:48:16;;;;;;;3.45;1.33;;;22.60;67.10;;;;;;4491661;32;20092;-67
2022/07/12 08:51:01;;;;;;;2.22;1.02;;;22.60;67.10;;;;;;4492273;32;20085;-67
2022/07/12 08:53:27;;;;;;;1.88;1.30;;;22.70;67.30;;;;;;4492039;32;20061;-66
2022/07/12 08:55:53;;;;;;;2.35;0.95;;;22.70;67.20;;;;;;4491625;32;20084;-68
2022/07/12 08:58:19;;;;;;;1.85;1.05;;;22.70;67.20;;;;;;4491903;32;20492;-66
2022/07/12 09:00:45;;;;;;;6.07;1.75;;;22.70;67.10;;;;;;4491861;32;20065;-66
2022/07/12 09:03:13;;;;;;;4.07;1.70;;;22.80;68.00;;;;;;4491910;32;20155;-66
2022/07/12 09:05:48;;;;;;;7.72;2.00;;;22.90;66.90;;;;;;4491560;32;20190;-67
2022/07/12 09:08:13;;;;;;;6.40;1.50;;;23.10;66.10;;;;;;4491538;32;20171;-67
2022/07/12 09:10:55;;;;;;;5.68;1.45;;;23.20;65.90;;;;;;4491575;32;20077;-67
2022/07/12 09:13:42;;;;;;;3.40;1.40;;;23.30;65.70;;;;;;4491544;32;20065;-67
2022/07/12 09:16:15;;;;;;;2.10;1.20;;;23.40;65.60;;;;;;4491170;32;20077;-67
2022/07/12 09:18:42;;;;;;;3.70;1.60;;;23.30;65.70;;;;;;4491484;32;20603;-68
2022/07/12 09:21:08;;;;;;;2.72;1.30;;;23.30;65.60;;;;;;4491200;32;20147;-67
2022/07/12 09:23:34;;;;;;;2.70;1.02;;;23.30;65.70;;;;;;4491674;32;20124;-66
2022/07/12 09:26:01;;;;;;;2.95;1.10;;;23.30;65.80;;;;;;4491409;32;20084;-68
2022/07/12 09:28:27;;;;;;;3.85;1.00;;;23.30;66.00;;;;;;4491903;31;20081;-67
2022/07/12 09:30:54;;;;;;;4.82;1.02;;;23.20;66.10;;;;;;4494249;31;20379;-70
2022/07/12 09:36:06;;;;;;;1.05;0.93;;;23.20;66.50;;;;;;4494430;31;20182;-67
2022/07/12 09:39:01;;;;;;;2.00;1.00;;;23.20;66.50;;;;;;4493977;31;20081;-69
2022/07/12 09:41:27;;;;;;;4.47;1.02;;;23.30;66.90;;;;;;4489471;31;20057;-67
2022/07/12 09:43:53;;;;;;;3.72;1.40;;;23.30;66.60;;;;;;4494037;31;20162;-66
2022/07/12 09:46:19;;;;;;;3.42;1.10;;;23.40;66.70;;;;;;4479508;31;20092;-67
2022/07/12 09:48:46;;;;;;;1.65;0.90;;;23.40;66.50;;;;;;4493919;31;20201;-67
2022/07/12 09:51:16;;;;;;;1.45;1.20;;;23.50;66.40;;;;;;4493661;31;20080;-67
2022/07/12 09:53:49;;;;;;;5.80;1.08;;;23.50;66.40;;;;;;4493959;31;20633;-67
2022/07/12 09:56:22;;;;;;;1.98;0.85;;;23.50;66.40;;;;;;4493885;31;20077;-66
2022/07/12 09:58:55;;;;;;;0.80;0.80;;;23.50;66.30;;;;;;4494032;31;20418;-67
2022/07/12 10:01:23;;;;;;;4.20;1.27;;;23.60;66.10;;;;;;4494081;31;20139;-67
2022/07/12 10:03:51;;;;;;;2.85;1.13;;;23.60;65.80;;;;;;4493572;31;20084;-67
2022/07/12 10:06:25;;;;;;;1.48;0.80;;;23.70;66.40;;;;;;4493766;31;20076;-67
2022/07/12 10:08:51;;;;;;;3.50;0.93;;;23.70;65.40;;;;;;4493649;31;20135;-67
2022/07/12 10:11:18;;;;;;;1.63;0.85;;;23.80;65.40;;;;;;4493721;31;20081;-67
2022/07/12 10:13:45;;;;;;;0.85;0.65;;;23.80;65.40;;;;;;4493668;31;20234;-67
2022/07/12 10:16:13;;;;;;;1.30;0.73;;;23.90;65.30;;;;;;4493293;31;20085;-68
2022/07/12 10:18:39;;;;;;;1.92;1.10;;;23.90;65.10;;;;;;4493508;31;20100;-67
2022/07/12 10:21:21;;;;;;;1.33;0.80;;;23.90;64.80;;;;;;4479144;31;20170;-67
2022/07/12 10:23:47;;;;;;;1.27;0.70;;;24.00;64.60;;;;;;4492799;31;20061;-68
2022/07/12 10:26:19;;;;;;;1.63;0.75;;;23.90;64.50;;;;;;4493425;31;20406;-67
2022/07/12 10:29:05;;;;;;;0.77;0.50;;;24.00;64.40;;;;;;4493497;31;20084;-67
2022/07/12 10:31:40;;;;;;;1.02;0.70;;;23.90;63.80;;;;;;4493360;31;20139;-67
2022/07/12 10:34:30;;;;;;;1.60;0.70;;;24.00;63.70;;;;;;4493179;31;20065;-67
2022/07/12 10:36:57;;;;;;;1.90;0.75;;;24.00;63.70;;;;;;4493219;31;20501;-67
2022/07/12 10:39:25;;;;;;;1.50;0.85;;;24.00;63.60;;;;;;4493051;31;20096;-67
2022/07/12 10:42:15;;;;;;;0.93;0.70;;;24.10;63.30;;;;;;4492491;31;20069;-67
2022/07/12 10:44:47;;;;;;;2.20;0.80;;;24.10;63.10;;;;;;4493217;31;20061;-67
2022/07/12 10:47:15;;;;;;;2.67;0.75;;;24.10;63.00;;;;;;4493412;31;20084;-67
2022/07/12 10:49:59;;;;;;;0.57;0.50;;;24.10;62.90;;;;;;4479416;31;20521;-66
2022/07/12 10:52:26;;;;;;;2.03;0.68;;;24.10;62.80;;;;;;4493161;31;20085;-67
2022/07/12 10:54:55;;;;;;;0.70;0.63;;;24.10;62.90;;;;;;4493019;31;20213;-67
2022/07/12 10:57:42;;;;;;;1.20;0.70;;;24.10;62.70;;;;;;4493185;31;20222;-67
2022/07/12 11:00:10;;;;;;;1.85;0.70;;;24.10;62.50;;;;;;4492757;31;20069;-67
2022/07/12 11:02:36;;;;;;;2.72;0.60;;;24.10;62.60;;;;;;4492942;31;20643;-67
2022/07/12 11:05:02;;;;;;;1.45;0.85;;;24.10;62.50;;;;;;4492546;31;20085;-67
2022/07/12 11:07:29;;;;;;;1.40;0.80;;;24.20;62.60;;;;;;4492734;31;20085;-67
2022/07/12 11:09:55;;;;;;;3.22;0.73;;;24.20;62.40;;;;;;4492421;31;20132;-67
2022/07/12 11:12:30;;;;;;;0.73;0.63;;;24.20;62.30;;;;;;4492728;31;20092;-67
2022/07/12 11:14:59;;;;;;;0.70;0.70;;;24.20;62.20;;;;;;4492729;31;20507;-67
2022/07/12 11:17:30;;;;;;;2.28;0.68;;;24.20;62.30;;;;;;4492672;31;20125;-67
2022/07/12 11:20:06;;;;;;;0.80;0.50;;;24.20;62.20;;;;;;4492639;31;20066;-67
2022/07/12 11:22:33;;;;;;;1.80;0.60;;;24.20;61.90;;;;;;4492864;31;20613;-67
2022/07/12 11:24:59;;;;;;;0.77;0.60;;;24.10;61.80;;;;;;4492255;31;20533;-67
2022/07/12 11:27:27;;;;;;;0.57;0.50;;;24.10;61.80;;;;;;4492420;31;20242;-67
2022/07/12 11:29:59;;;;;;;1.35;0.60;;;24.20;61.90;;;;;;4492774;31;20077;-67
2022/07/12 11:32:40;;;;;;;0.80;0.67;;;24.20;62.00;;;;;;4492207;31;20084;-67
2022/07/12 11:35:27;;;;;;;1.17;0.63;;;24.20;62.20;;;;;;4478259;31;20651;-67
2022/07/12 11:37:55;;;;;;;2.05;0.77;;;24.20;62.10;;;;;;4492037;31;20080;-67
2022/07/12 11:40:29;;;;;;;1.00;0.57;;;24.30;62.00;;;;;;4492336;31;20081;-67
2022/07/12 11:42:59;;;;;;;2.35;0.60;;;24.30;62.80;;;;;;4492627;31;20131;-67
2022/07/12 11:45:30;;;;;;;1.67;0.47;;;24.40;61.90;;;;;;4492386;31;20069;-67
2022/07/12 11:48:02;;;;;;;3.55;0.80;;;24.40;61.70;;;;;;4492158;31;20085;-67
2022/07/12 11:50:34;;;;;;;1.00;0.70;;;24.40;61.60;;;;;;4492429;31;20281;-67
2022/07/12 11:53:01;;;;;;;1.70;0.80;;;24.40;61.30;;;;;;4491738;31;20097;-67
2022/07/12 11:55:27;;;;;;;0.75;0.45;;;24.50;61.10;;;;;;4477819;31;20109;-68
2022/07/12 11:58:04;;;;;;;3.25;0.50;;;24.60;60.80;;;;;;4491960;31;20116;-68
2022/07/12 12:00:30;;;;;;;1.77;0.40;;;24.60;60.50;;;;;;4492231;31;20065;-67
2022/07/12 12:02:55;;;;;;;0.77;0.43;;;24.60;60.50;;;;;;4492092;31;20158;-67
2022/07/12 12:05:21;;;;;;;0.65;0.50;;;24.60;60.40;;;;;;4492257;31;20219;-67
2022/07/12 12:07:47;;;;;;;0.98;0.60;;;24.70;60.40;;;;;;4491961;31;20394;-67
2022/07/12 12:10:15;;;;;;;3.85;0.80;;;24.70;60.20;;;;;;4491771;31;20207;-67
2022/07/12 12:12:52;;;;;;;1.33;0.68;;;24.70;60.20;;;;;;4491950;31;20139;-67
2022/07/12 12:15:33;;;;;;;0.50;0.30;;;24.70;60.10;;;;;;4492335;31;20068;-68
2022/07/12 12:18:05;;;;;;;1.63;0.52;;;24.70;60.20;;;;;;4492196;31;20502;-68
2022/07/12 12:20:36;;;;;;;0.70;0.50;;;24.70;60.40;;;;;;4491753;32;20091;-67
2022/07/12 12:23:03;;;;;;;2.05;0.50;;;24.80;60.50;;;;;;4492056;32;20065;-68
2022/07/12 12:25:30;;;;;;;1.27;0.70;;;24.80;60.40;;;;;;4477223;32;20524;-67
2022/07/12 12:28:00;;;;;;;2.33;0.47;;;24.90;60.50;;;;;;4492063;32;20558;-67
2022/07/12 12:30:27;;;;;;;2.75;0.60;;;24.90;60.40;;;;;;4491910;32;20128;-68
2022/07/12 12:32:57;;;;;;;1.27;0.73;;;24.90;60.40;;;;;;4491890;32;20104;-69
2022/07/12 12:35:31;;;;;;;1.20;0.57;;;24.90;60.50;;;;;;4492118;32;20093;-69
2022/07/12 12:38:02;;;;;;;2.28;0.70;;;24.90;60.60;;;;;;4491867;32;20085;-68
2022/07/12 12:40:31;;;;;;;1.00;0.70;;;25.00;60.50;;;;;;4491770;32;20088;-68
2022/07/12 12:43:17;;;;;;;1.20;0.60;;;25.00;60.30;;;;;;4492035;32;20106;-68
2022/07/12 12:45:50;;;;;;;2.10;0.70;;;25.00;60.20;;;;;;4491353;32;20096;-68
2022/07/12 12:48:27;;;;;;;1.00;0.80;;;25.10;59.80;;;;;;4491695;32;20092;-68
2022/07/12 12:51:15;;;;;;;1.48;1.00;;;25.10;59.50;;;;;;4491892;32;20069;-68
2022/07/12 12:53:43;;;;;;;2.60;1.13;;;25.10;59.60;;;;;;4491948;32;20087;-68
2022/07/12 12:56:13;;;;;;;2.40;0.90;;;25.20;59.80;;;;;;4477249;32;20262;-68
2022/07/12 12:58:40;;;;;;;2.28;1.15;;;25.20;60.00;;;;;;4492003;32;20460;-68
2022/07/12 13:01:07;;;;;;;2.47;1.10;;;25.20;60.00;;;;;;4491627;32;20167;-68
2022/07/12 13:03:34;;;;;;;2.58;1.35;;;25.20;60.10;;;;;;4478277;31;20533;-68
2022/07/12 13:06:01;;;;;;;2.72;1.20;;;25.20;60.20;;;;;;4494687;31;20085;-68